< Typhoon 196017 1960 Season Typhoon 196019 >
Typhoon 196018 (FAYE)
General InformationTrack Information on Google Maps || Disaster Info.ResourceGoogle EarthGE AnimationAtom FeedGeoJSON
Detalied Best Track (Time Zone = UTC)
Year Month Day Hour Lat. Long. Pressure (hPa) Wind (kt) Class Image Chart
1960 8 23 00 20.0 158.0 1008 0 2 -- Chart
1960 8 23 06 21.5 158.1 1004 0 9 -- Chart
1960 8 23 12 22.0 158.4 1004 0 9 -- Chart
1960 8 23 18 22.4 158.6 1000 0 9 -- Chart
1960 8 24 00 23.1 159.0 1000 0 9 -- Chart
1960 8 24 06 23.8 159.2 1000 0 9 -- Chart
1960 8 24 12 24.3 159.4 1000 0 9 -- Chart
1960 8 24 18 25.0 159.6 1000 0 9 -- Chart
1960 8 25 00 25.5 160.0 995 0 9 -- Chart
1960 8 25 06 25.6 159.8 995 0 9 -- Chart
1960 8 25 12 25.6 159.6 995 0 9 -- Chart
1960 8 25 18 25.6 159.4 995 0 9 -- Chart
1960 8 26 00 25.3 158.5 980 0 9 -- Chart
1960 8 26 06 25.0 157.4 975 0 9 -- Chart
1960 8 26 12 24.1 156.5 975 0 9 -- Chart
1960 8 26 18 23.5 155.4 970 0 9 -- Chart
1960 8 27 00 23.0 154.0 965 0 9 -- Chart
1960 8 27 06 22.9 152.4 955 0 9 -- Chart
1960 8 27 12 22.7 151.0 955 0 9 -- Chart
1960 8 27 18 22.6 149.7 955 0 9 -- Chart
1960 8 28 00 22.6 148.0 955 0 9 -- Chart
1960 8 28 06 22.8 146.7 950 0 9 -- Chart
1960 8 28 12 23.2 145.2 945 0 9 -- Chart
1960 8 28 18 24.1 143.9 950 0 9 -- Chart
1960 8 29 00 25.2 142.8 950 0 9 -- Chart
1960 8 29 06 26.2 142.0 955 0 9 -- Chart
1960 8 29 12 27.0 141.4 960 0 9 -- Chart
1960 8 29 18 28.0 141.0 960 0 9 -- Chart
1960 8 30 00 29.4 140.2 965 0 9 -- Chart
1960 8 30 06 31.4 141.0 970 0 9 -- Chart
1960 8 30 12 33.6 141.1 980 0 9 -- Chart
1960 8 30 18 35.3 142.1 996 0 9 -- Chart
1960 8 31 00 36.5 143.3 998 0 9 -- Chart
1960 8 31 06 38.1 145.9 996 0 9 -- Chart
1960 8 31 12 39.0 148.0 996 0 9 -- Chart
1960 8 31 18 39.5 150.0 1000 0 6 -- Chart
1960 9 1 00 40.0 152.0 1002 0 6 -- Chart
1960 9 1 06 40.2 153.1 1004 0 6 -- Chart
1960 9 1 12 40.5 154.1 1006 0 6 -- Chart
1960 9 1 18 40.7 155.1 1006 0 6 -- Chart
1960 9 2 00 41.0 157.0 1006 0 6 -- Chart
1960 9 2 06 41.0 158.0 1006 0 6 -- Chart
1960 9 2 12 40.0 160.0 1006 0 6 -- Chart
1960 9 2 18 39.0 161.0 1004 0 6 -- Chart
1960 9 3 00 38.0 162.0 1004 0 6 -- Chart
1960 9 3 06 35.0 162.0 1008 0 6 -- Chart
1960 9 3 12 32.0 162.0 1008 0 6 -- Chart
1960 9 3 18 32.0 161.0 1008 0 6 -- Chart
1960 9 4 00 32.0 160.0 1006 0 6 -- Chart
1960 9 4 06 32.3 157.0 1006 0 6 -- Chart
1960 9 4 12 32.0 156.0 1006 0 6 -- Chart
1960 9 4 18 31.7 156.3 1008 0 6 -- Chart
1960 9 5 00 31.4 156.6 1012 0 6 -- Chart
1960 9 5 06 31.0 157.0 1010 0 6 -- Chart
1960 9 5 12 30.8 157.2 1014 0 6 -- Chart
1960 9 5 18 30.3 157.5 1010 0 6 -- Chart
Japan Meteorological Agency Best Track Data | Correction Date : 1989-06-01
< Typhoon 196017 1960 Season Typhoon 196019 >

Help